Observations for Trim Market St
| Time | AQI | Temp °C | Hum % | Pres Pa | CO μg/m³ | H₂S μg/m³ | NO μg/m³ | NO₂ μg/m³ | O₃ μg/m³ | SO₂ μg/m³ | PM1 μg/m³ | PM2.5 μg/m³ | PM10 μg/m³ |
|---|---|---|---|---|---|---|---|---|---|---|---|---|---|
| Friday 21 August 2026 | |||||||||||||
| 05:53 | 2 | 9.7 | 81 | 2,147,483,647 | 0.57 | 0 | 61.43 | 12.85 | 30.05 | 0 | 0 | 1.12 | 3.6 |
| 05:51 | 2 | 9.7 | 81 | 2,147,483,647 | 0.61 | 0 | 52.73 | 31.3 | 2.05 | 0 | 1.43 | 2.54 | 5.85 |
| 05:50 | 2 | 9.7 | 81 | 2,147,483,647 | 0.66 | 0 | 50.9 | 35.49 | 0 | 0 | 0.71 | 3.01 | 5.85 |
| 05:48 | 2 | 9.7 | 81 | 2,147,483,647 | 0.57 | 0 | 10.69 | 14.84 | 25.11 | 0 | 1.43 | 3.48 | 6.97 |
| 05:47 | 2 | 9.8 | 81 | 2,147,483,647 | 0.58 | 0 | 10.63 | 13.22 | 30.19 | 0 | 1.43 | 3.01 | 5.85 |
| 05:46 | 2 | 9.7 | 81 | 2,147,483,647 | 0.66 | 0 | 11.56 | 17.28 | 21.73 | 0 | 0.71 | 1.6 | 4.16 |
| 05:45 | 2 | 9.7 | 81 | 2,147,483,647 | 0.61 | 0 | 9.53 | 16.52 | 23.8 | 0 | 1.43 | 3.48 | 6.41 |
| 05:44 | 2 | 9.7 | 81 | 2,147,483,647 | 0.57 | 0 | 8.67 | 11.67 | 31.07 | 0 | 0 | 2.07 | 5.28 |
| 05:43 | 2 | 9.7 | 81 | 2,147,483,647 | 0.58 | 0 | 7.91 | 12.84 | 28.59 | 0 | 1.43 | 2.54 | 5.28 |
| 05:40 | 2 | 9.7 | 81 | 2,147,483,647 | 0.57 | 0 | 5.38 | 11.9 | 31.44 | 0 | 0 | 1.13 | 4.16 |
| 05:39 | 2 | 9.8 | 81 | 2,147,483,647 | 0.56 | 0 | 4.13 | 11.93 | 31.9 | 0 | 0 | 0.66 | 3.03 |
| 05:34 | 2 | 9.8 | 81 | 2,147,483,647 | 0.55 | 0 | 6.77 | 11.59 | 31.49 | 0 | 0.71 | 1.6 | 4.72 |
| 05:33 | 2 | 9.8 | 81 | 2,147,483,647 | 0.57 | 0 | 7.41 | 11.59 | 32.39 | 0 | 0.71 | 1.6 | 4.16 |
| 05:29 | 2 | 9.8 | 81 | 2,147,483,647 | 0.55 | 0 | 5.04 | 11.69 | 32.34 | 0 | 0.71 | 2.07 | 4.72 |
| 05:26 | 2 | 9.8 | 81 | 2,147,483,647 | 0.55 | 0 | 5.04 | 11.59 | 32.4 | 0 | 0.71 | 2.07 | 4.72 |
| 05:20 | 2 | 9.9 | 81 | 2,147,483,647 | 0.54 | 0 | 6.73 | 14.2 | 28.37 | 0 | 0.71 | 2.08 | 5.28 |
| 05:19 | 2 | 9.9 | 81 | 2,147,483,647 | 0.55 | 0 | 6.73 | 11.84 | 32.24 | 0 | 0.71 | 1.61 | 4.15 |
| 05:18 | 2 | 9.8 | 81 | 2,147,483,647 | 0.57 | 0 | 6.71 | 11.9 | 31.72 | 0 | 0.71 | 2.55 | 6.41 |
| 05:17 | 2 | 9.9 | 81 | 2,147,483,647 | 0.55 | 0 | 7.43 | 11.61 | 32.86 | 0 | 0.71 | 2.08 | 4.72 |
| 05:16 | 2 | 9.9 | 81 | 2,147,483,647 | 0.54 | 0 | 9.01 | 11.51 | 33.07 | 0 | 0.71 | 1.61 | 4.15 |